createdAt,value
2022-10-12T00:00:45.366Z,134.33
2022-10-12T00:03:13.413Z,134.67
2022-10-12T00:05:41.513Z,134.43
2022-10-12T00:08:09.486Z,134.20
2022-10-12T00:10:42.583Z,134.43
2022-10-12T00:13:10.888Z,133.80
2022-10-12T00:15:39.335Z,133.67
2022-10-12T00:18:07.522Z,133.93
2022-10-12T00:20:35.785Z,133.70
2022-10-12T00:23:03.850Z,133.97
2022-10-12T00:25:31.670Z,134.03
2022-10-12T00:28:00.779Z,134.17
2022-10-12T00:30:28.686Z,133.60
2022-10-12T00:32:57.366Z,133.83
2022-10-12T00:35:25.203Z,133.90
2022-10-12T00:37:54.794Z,134.57
2022-10-12T00:40:22.952Z,133.90
2022-10-12T00:42:50.735Z,134.43
2022-10-12T00:45:19.978Z,134.10
2022-10-12T00:47:52.106Z,134.20
2022-10-12T00:50:24.003Z,133.50
2022-10-12T00:52:57.673Z,134.33
2022-10-12T00:55:27.423Z,133.87
2022-10-12T00:57:56.308Z,134.00
2022-10-12T01:00:25.779Z,134.27
2022-10-12T01:02:55.208Z,133.30
2022-10-12T01:05:24.260Z,133.67
2022-10-12T01:07:52.610Z,133.97
2022-10-12T01:10:20.598Z,134.67
2022-10-12T01:12:50.262Z,133.40
2022-10-12T01:15:18.420Z,133.43
2022-10-12T01:17:57.946Z,133.37
2022-10-12T01:20:44.768Z,133.53
2022-10-12T01:23:36.675Z,133.33
2022-10-12T01:26:23.842Z,133.83
2022-10-12T01:29:04.623Z,133.03
2022-10-12T01:31:41.812Z,134.17
2022-10-12T01:34:14.830Z,133.60
2022-10-12T01:36:46.304Z,133.57
2022-10-12T01:39:19.088Z,133.33
2022-10-12T01:41:50.609Z,134.03
2022-10-12T01:44:22.096Z,133.27
2022-10-12T01:46:53.088Z,133.00
2022-10-12T01:49:25.867Z,133.57
2022-10-12T01:52:16.483Z,133.33
2022-10-12T01:55:07.280Z,133.33
2022-10-12T01:57:47.445Z,133.47
2022-10-12T02:00:17.147Z,133.30
2022-10-12T02:02:56.145Z,133.43
2022-10-12T02:05:31.993Z,133.30
2022-10-12T02:08:05.174Z,133.87
2022-10-12T02:10:39.828Z,133.47
2022-10-12T02:13:11.482Z,133.60
2022-10-12T02:15:41.088Z,133.43
2022-10-12T02:18:14.390Z,132.67
2022-10-12T02:20:43.230Z,133.13
2022-10-12T02:23:12.305Z,133.90
2022-10-12T02:25:41.031Z,133.53
2022-10-12T02:28:11.974Z,133.23
2022-10-12T02:30:47.852Z,133.37
2022-10-12T02:33:25.816Z,133.40
2022-10-12T02:35:58.743Z,132.70
2022-10-12T02:38:32.759Z,132.93
2022-10-12T02:41:05.782Z,132.77
2022-10-12T02:43:38.765Z,132.90
2022-10-12T02:46:10.259Z,132.83
2022-10-12T02:48:41.074Z,132.60
2022-10-12T02:51:10.482Z,133.67
2022-10-12T02:53:38.809Z,132.77
2022-10-12T02:56:10.884Z,132.60
2022-10-12T02:58:39.098Z,133.47
2022-10-12T03:01:07.062Z,132.23
2022-10-12T03:03:34.870Z,132.67
2022-10-12T03:06:04.213Z,132.17
2022-10-12T03:08:32.196Z,133.37
2022-10-12T03:11:02.452Z,133.07
2022-10-12T03:13:30.315Z,133.07
2022-10-12T03:16:02.911Z,132.23
2022-10-12T03:18:30.792Z,133.10
2022-10-12T03:20:58.915Z,132.67
2022-10-12T03:23:28.087Z,132.93
2022-10-12T03:25:55.959Z,132.27
2022-10-12T03:28:23.797Z,132.23
2022-10-12T03:30:51.676Z,133.37
2022-10-12T03:33:19.486Z,132.47
2022-10-12T03:35:48.382Z,133.53
2022-10-12T03:38:17.501Z,133.60
2022-10-12T03:40:47.263Z,133.47
2022-10-12T03:43:15.354Z,133.07
2022-10-12T03:45:43.216Z,133.07
2022-10-12T03:48:11.352Z,132.97
2022-10-12T03:50:40.056Z,132.87
2022-10-12T03:53:07.907Z,133.50
2022-10-12T03:55:35.688Z,133.00
2022-10-12T03:58:04.782Z,132.90
2022-10-12T04:00:32.598Z,133.23
2022-10-12T04:03:02.051Z,132.77
2022-10-12T04:05:29.978Z,133.00
2022-10-12T04:07:57.894Z,132.33
2022-10-12T04:10:25.846Z,133.10
2022-10-12T04:12:53.628Z,132.50
2022-10-12T04:17:55.496Z,132.63
2022-10-12T04:20:23.282Z,133.63
2022-10-12T04:22:51.060Z,133.53
2022-10-12T04:25:18.931Z,132.67
2022-10-12T04:27:46.726Z,132.97
2022-10-12T04:30:14.753Z,132.87
2022-10-12T04:32:43.981Z,133.17
2022-10-12T04:35:11.869Z,133.10
2022-10-12T04:37:39.799Z,132.90
2022-10-12T04:40:09.091Z,133.23
2022-10-12T04:42:36.855Z,132.43
2022-10-12T04:45:05.215Z,132.70
2022-10-12T04:47:35.182Z,133.03
2022-10-12T04:50:04.915Z,133.00
2022-10-12T04:52:32.716Z,133.37
2022-10-12T04:55:01.295Z,133.13
2022-10-12T04:57:29.063Z,133.37
2022-10-12T04:59:56.914Z,133.40
2022-10-12T05:02:24.719Z,133.03
2022-10-12T05:04:52.675Z,133.07
2022-10-12T05:07:21.832Z,133.30
2022-10-12T05:09:49.602Z,133.47
2022-10-12T05:12:17.865Z,133.30
2022-10-12T05:14:45.616Z,133.73
2022-10-12T05:17:13.583Z,133.17
2022-10-12T05:19:41.325Z,134.00
2022-10-12T05:22:09.094Z,134.03
2022-10-12T05:24:38.234Z,133.73
2022-10-12T05:27:06.023Z,133.63
2022-10-12T05:29:33.787Z,133.33
2022-10-12T05:32:01.668Z,132.93
2022-10-12T05:34:29.450Z,133.83
2022-10-12T05:36:58.181Z,133.53
2022-10-12T05:39:26.060Z,133.10
2022-10-12T05:41:55.833Z,133.87
2022-10-12T05:44:23.604Z,133.33
2022-10-12T05:46:51.414Z,134.20
2022-10-12T05:49:19.196Z,133.50
2022-10-12T05:51:47.039Z,134.00
2022-10-12T05:54:14.821Z,134.97
2022-10-12T05:56:42.690Z,134.40
2022-10-12T05:59:12.096Z,133.90
2022-10-12T06:01:40.307Z,134.37
2022-10-12T06:04:08.389Z,133.77
2022-10-12T06:06:36.264Z,133.57
2022-10-12T06:09:04.128Z,133.23
2022-10-12T06:11:35.496Z,133.53
2022-10-12T06:14:04.607Z,133.43
2022-10-12T06:16:33.784Z,133.33
2022-10-12T06:19:01.741Z,134.03
2022-10-12T06:21:33.630Z,135.70
2022-10-12T06:24:01.940Z,144.90
2022-10-12T06:26:29.774Z,132.37
2022-10-12T06:29:00.784Z,131.93
2022-10-12T06:31:28.855Z,131.50
2022-10-12T06:33:58.008Z,131.67
2022-10-12T06:36:25.792Z,131.93
2022-10-12T06:38:53.610Z,131.33
2022-10-12T06:41:21.400Z,131.87
2022-10-12T06:43:49.173Z,130.67
2022-10-12T06:46:16.989Z,131.23
2022-10-12T06:48:44.827Z,131.27
2022-10-12T06:51:13.941Z,130.93
2022-10-12T06:53:41.724Z,131.07
2022-10-12T06:56:10.691Z,130.77
2022-10-12T06:58:38.755Z,130.83
2022-10-12T07:01:08.519Z,130.13
2022-10-12T07:03:36.330Z,130.03
2022-10-12T07:06:09.010Z,130.10
2022-10-12T07:08:38.228Z,130.37
2022-10-12T07:11:07.623Z,130.23
2022-10-12T07:13:35.513Z,130.60
2022-10-12T07:16:03.522Z,130.23
2022-10-12T07:18:31.462Z,129.73
2022-10-12T07:21:02.304Z,130.33
2022-10-12T07:23:31.452Z,129.47
2022-10-12T07:26:00.607Z,130.80
2022-10-12T07:28:28.711Z,131.30
2022-10-12T07:31:01.545Z,132.30
2022-10-12T07:33:32.359Z,132.77
2022-10-12T07:36:20.803Z,132.93
2022-10-12T07:38:48.864Z,133.00
2022-10-12T07:41:18.570Z,133.07
2022-10-12T07:43:46.383Z,133.20
2022-10-12T07:46:14.180Z,133.20
2022-10-12T07:48:45.874Z,133.00
2022-10-12T07:51:16.912Z,132.43
2022-10-12T07:53:44.700Z,132.50
2022-10-12T07:56:15.752Z,131.87
2022-10-12T07:58:49.796Z,132.20
2022-10-12T08:01:18.207Z,131.23
2022-10-12T08:03:46.086Z,131.63
2022-10-12T08:06:15.659Z,131.07
2022-10-12T08:08:44.159Z,131.77
2022-10-12T08:11:13.335Z,131.67
2022-10-12T08:13:41.933Z,132.03
2022-10-12T08:16:13.479Z,132.73
2022-10-12T08:18:41.576Z,133.43
2022-10-12T08:21:10.756Z,133.30
2022-10-12T08:23:39.120Z,133.63
2022-10-12T08:26:07.449Z,134.07
2022-10-12T08:28:36.808Z,134.27
2022-10-12T08:31:07.968Z,134.70
2022-10-12T08:33:37.102Z,135.17
2022-10-12T08:36:06.439Z,135.53
2022-10-12T08:38:34.582Z,135.93
2022-10-12T08:41:12.277Z,136.33
2022-10-12T08:43:57.553Z,135.80
2022-10-12T08:46:27.704Z,136.70
2022-10-12T08:49:01.645Z,136.20
2022-10-12T08:51:33.123Z,136.27
2022-10-12T08:54:06.274Z,136.20
2022-10-12T08:56:35.755Z,136.30
2022-10-12T08:59:04.028Z,136.07
2022-10-12T09:01:37.341Z,135.97
2022-10-12T09:04:16.262Z,136.47
2022-10-12T09:06:49.292Z,137.17
2022-10-12T09:09:38.919Z,136.83
2022-10-12T09:12:21.537Z,136.83
2022-10-12T09:14:52.148Z,137.17
2022-10-12T09:17:27.369Z,136.47
2022-10-12T09:20:03.266Z,137.23
2022-10-12T09:22:34.807Z,136.40
2022-10-12T09:25:04.017Z,135.87
2022-10-12T09:27:32.966Z,136.20
2022-10-12T09:30:04.657Z,135.93
2022-10-12T09:32:48.943Z,136.83
2022-10-12T09:35:18.407Z,136.40
2022-10-12T09:37:51.354Z,136.07
2022-10-12T09:40:27.295Z,136.50
2022-10-12T09:42:56.759Z,136.33
2022-10-12T09:45:24.547Z,136.30
2022-10-12T09:48:14.567Z,135.83
2022-10-12T09:50:48.781Z,136.60
2022-10-12T09:53:22.587Z,136.50
2022-10-12T09:55:58.528Z,136.63
2022-10-12T09:58:28.246Z,136.60
2022-10-12T10:01:16.317Z,135.97
2022-10-12T10:03:44.186Z,136.40
2022-10-12T10:06:15.171Z,136.93
2022-10-12T10:08:44.930Z,136.73
2022-10-12T10:11:17.255Z,137.20
2022-10-12T10:13:49.976Z,136.77
2022-10-12T10:16:18.291Z,137.37
2022-10-12T10:18:49.398Z,137.27
2022-10-12T10:21:27.541Z,137.40
2022-10-12T10:23:57.954Z,136.17
2022-10-12T10:26:28.317Z,136.23
2022-10-12T10:28:59.539Z,136.23
2022-10-12T10:31:29.595Z,136.10
2022-10-12T10:34:22.945Z,135.47
2022-10-12T10:36:54.757Z,134.73
2022-10-12T10:39:26.763Z,136.13
2022-10-12T10:41:56.064Z,136.43
2022-10-12T10:44:32.755Z,135.77
2022-10-12T10:47:03.703Z,135.53
2022-10-12T10:49:37.765Z,136.43
2022-10-12T10:52:08.859Z,136.07
2022-10-12T10:54:38.683Z,135.80
2022-10-12T10:57:14.573Z,135.63
2022-10-12T10:59:47.972Z,135.93
2022-10-12T11:02:26.279Z,135.53
2022-10-12T11:04:59.296Z,136.03
2022-10-12T11:07:34.508Z,136.43
2022-10-12T11:10:05.190Z,136.43
2022-10-12T11:12:36.947Z,136.77
2022-10-12T11:15:09.088Z,137.27
2022-10-12T11:17:41.973Z,136.40
2022-10-12T11:20:29.532Z,136.70
2022-10-12T11:23:05.428Z,137.03
2022-10-12T11:25:38.773Z,136.53
2022-10-12T11:28:08.455Z,136.17
2022-10-12T11:30:41.761Z,137.17
2022-10-12T11:33:15.165Z,136.53
2022-10-12T11:35:45.274Z,136.17
2022-10-12T11:38:22.315Z,136.60
2022-10-12T11:41:33.872Z,136.03
2022-10-12T11:43:47.958Z,136.73
2022-10-12T11:46:19.428Z,136.17
2022-10-12T11:48:53.799Z,136.67
2022-10-12T11:51:21.627Z,135.93
2022-10-12T11:54:00.086Z,136.70
2022-10-12T11:56:33.258Z,135.97
2022-10-12T11:59:05.137Z,136.33
2022-10-12T12:01:48.444Z,135.53
2022-10-12T12:04:44.209Z,136.27
2022-10-12T12:07:42.750Z,136.23
2022-10-12T12:10:47.060Z,135.47
2022-10-12T12:13:26.757Z,136.10
2022-10-12T12:16:33.691Z,135.93
2022-10-12T12:19:31.191Z,135.73
2022-10-12T12:22:23.443Z,135.90
2022-10-12T12:25:05.295Z,135.80
2022-10-12T12:27:37.216Z,135.80
2022-10-12T12:30:22.225Z,135.43
2022-10-12T12:32:53.583Z,135.03
2022-10-12T12:35:28.347Z,135.70
2022-10-12T12:38:04.516Z,135.90
2022-10-12T12:40:33.241Z,135.57
2022-10-12T12:43:20.966Z,135.40
2022-10-12T12:45:58.519Z,135.83
2022-10-12T12:49:02.968Z,135.87
2022-10-12T12:51:43.024Z,135.17
2022-10-12T12:54:17.918Z,135.30
2022-10-12T12:57:10.144Z,135.30
2022-10-12T13:00:11.537Z,136.20
2022-10-12T13:03:15.981Z,135.70
2022-10-12T13:06:14.525Z,136.17
2022-10-12T13:08:56.291Z,135.80
2022-10-12T13:11:53.803Z,135.40
2022-10-12T13:14:38.642Z,135.50
2022-10-12T13:17:35.398Z,135.40
2022-10-12T13:20:13.778Z,135.30
2022-10-12T13:22:42.140Z,135.73
2022-10-12T13:25:16.315Z,135.87
2022-10-12T13:27:47.954Z,135.83
2022-10-12T13:30:24.236Z,135.87
2022-10-12T13:32:55.942Z,135.33
2022-10-12T13:35:32.364Z,135.63
2022-10-12T13:38:05.668Z,136.27
2022-10-12T13:40:37.164Z,136.30
2022-10-12T13:43:26.686Z,135.17
2022-10-12T13:45:54.550Z,136.27
2022-10-12T13:48:46.579Z,135.17
2022-10-12T13:51:24.344Z,135.17
2022-10-12T13:53:52.137Z,134.87
2022-10-12T13:56:23.914Z,135.67
2022-10-12T13:58:54.788Z,135.27
2022-10-12T14:01:22.662Z,135.10
2022-10-12T14:03:50.508Z,135.40
2022-10-12T14:06:29.469Z,135.23
2022-10-12T14:08:59.101Z,134.83
2022-10-12T14:11:28.385Z,135.77
2022-10-12T14:13:56.874Z,135.40
2022-10-12T14:16:24.719Z,135.60
2022-10-12T14:18:52.529Z,135.10
2022-10-12T14:21:23.863Z,135.77
2022-10-12T14:23:55.943Z,135.63
2022-10-12T14:26:26.682Z,135.00
2022-10-12T14:28:54.912Z,135.60
2022-10-12T14:31:52.236Z,135.63
2022-10-12T14:34:36.691Z,135.93
2022-10-12T14:37:06.877Z,134.60
2022-10-12T14:39:36.645Z,135.50
2022-10-12T14:42:05.780Z,135.50
2022-10-12T14:44:43.670Z,135.03
2022-10-12T14:47:18.882Z,135.80
2022-10-12T14:49:48.095Z,135.10
2022-10-12T14:52:20.678Z,135.53
2022-10-12T14:54:52.852Z,135.80
2022-10-12T14:57:21.438Z,135.17
2022-10-12T14:59:49.451Z,135.57
2022-10-12T15:02:20.452Z,135.30
2022-10-12T15:04:48.968Z,135.47
2022-10-12T15:07:19.318Z,134.87
2022-10-12T15:09:47.925Z,135.10
2022-10-12T15:12:19.925Z,135.27
2022-10-12T15:14:49.288Z,134.53
2022-10-12T15:17:19.657Z,135.30
2022-10-12T15:19:49.091Z,135.50
2022-10-12T15:22:19.351Z,135.40
2022-10-12T15:24:47.941Z,134.87
2022-10-12T15:27:17.240Z,134.53
2022-10-12T15:29:45.746Z,135.27
2022-10-12T15:32:15.099Z,135.33
2022-10-12T15:34:43.283Z,134.20
2022-10-12T15:37:11.103Z,135.37
2022-10-12T15:39:38.881Z,134.63
2022-10-12T15:42:06.738Z,135.10
2022-10-12T15:44:41.130Z,134.97
2022-10-12T15:47:10.959Z,135.37
2022-10-12T15:49:38.984Z,134.50
2022-10-12T15:52:10.382Z,134.67
2022-10-12T15:54:38.178Z,134.97
2022-10-12T15:57:07.336Z,134.77
2022-10-12T15:59:37.146Z,134.70
2022-10-12T16:02:04.959Z,134.70
2022-10-12T16:04:32.757Z,134.67
2022-10-12T16:07:01.255Z,134.90
2022-10-12T16:09:29.042Z,134.87
2022-10-12T16:11:56.847Z,134.50
2022-10-12T16:14:24.695Z,135.13
2022-10-12T16:16:53.836Z,134.97
2022-10-12T16:19:21.622Z,134.40
2022-10-12T16:21:49.509Z,134.87
2022-10-12T16:24:17.851Z,135.17
2022-10-12T16:26:47.261Z,133.90
2022-10-12T16:29:15.048Z,134.17
2022-10-12T16:34:17.156Z,133.90
2022-10-12T16:36:44.974Z,134.40
2022-10-12T16:39:12.829Z,134.70
2022-10-12T16:41:40.632Z,133.80
2022-10-12T16:44:08.406Z,133.90
2022-10-12T16:46:36.868Z,134.47
2022-10-12T16:49:04.794Z,134.13
2022-10-12T16:51:33.912Z,134.33
2022-10-12T16:54:01.738Z,134.00
2022-10-12T16:56:29.510Z,134.03
2022-10-12T16:58:57.305Z,133.73
2022-10-12T17:01:26.077Z,133.97
2022-10-12T17:03:54.537Z,134.20
2022-10-12T17:06:22.439Z,134.10
2022-10-12T17:08:54.535Z,134.50
2022-10-12T17:11:22.337Z,133.43
2022-10-12T17:13:50.140Z,134.27
2022-10-12T17:16:36.588Z,134.40
2022-10-12T17:19:04.507Z,133.37
2022-10-12T17:21:32.336Z,133.80
2022-10-12T17:24:02.251Z,134.10
2022-10-12T17:26:30.483Z,133.83
2022-10-12T17:28:58.334Z,134.63
2022-10-12T17:31:26.839Z,133.60
2022-10-12T17:33:54.618Z,133.47
2022-10-12T17:36:27.841Z,133.67
2022-10-12T17:38:57.709Z,133.80
2022-10-12T17:41:28.310Z,133.00
2022-10-12T17:43:56.070Z,133.10
2022-10-12T17:46:23.876Z,133.93
2022-10-12T17:48:51.832Z,133.70
2022-10-12T17:51:19.672Z,133.17
2022-10-12T17:53:47.509Z,133.80
2022-10-12T17:56:16.244Z,133.10
2022-10-12T17:58:45.495Z,133.07
2022-10-12T18:01:15.393Z,133.83
2022-10-12T18:03:46.392Z,133.93
2022-10-12T18:06:16.641Z,133.47
2022-10-12T18:08:44.883Z,133.20
2022-10-12T18:11:13.244Z,134.00
2022-10-12T18:13:41.073Z,133.67
2022-10-12T18:16:11.520Z,133.47
2022-10-12T18:18:39.347Z,133.73
2022-10-12T18:21:07.804Z,133.20
2022-10-12T18:23:35.599Z,132.80
2022-10-12T18:26:05.158Z,133.50
2022-10-12T18:28:34.011Z,132.93
2022-10-12T18:31:02.348Z,133.20
2022-10-12T18:33:31.964Z,133.00
2022-10-12T18:36:04.118Z,133.07
2022-10-12T18:38:32.107Z,132.87
2022-10-12T18:41:03.801Z,132.37
2022-10-12T18:43:31.543Z,133.13
2022-10-12T18:45:59.357Z,132.40
2022-10-12T18:49:16.609Z,132.43
2022-10-12T19:13:19.530Z,131.53
2022-10-12T19:15:47.312Z,131.90
2022-10-12T19:18:15.059Z,131.37
2022-10-12T19:20:42.828Z,132.07
2022-10-12T19:23:10.610Z,132.40
2022-10-12T19:25:39.797Z,132.33
2022-10-12T19:28:07.571Z,132.17
2022-10-12T19:30:39.572Z,131.90
2022-10-12T19:33:07.355Z,132.50
2022-10-12T19:35:38.518Z,132.20
2022-10-12T19:38:06.532Z,132.57
2022-10-12T19:40:37.454Z,132.57
2022-10-12T19:43:06.764Z,132.70
2022-10-12T19:45:40.194Z,133.80
2022-10-12T19:48:08.416Z,133.13
2022-10-12T19:50:36.820Z,133.13
2022-10-12T19:53:05.138Z,133.03
2022-10-12T19:55:34.002Z,132.93
2022-10-12T19:58:02.235Z,132.97
2022-10-12T20:00:30.113Z,133.67
2022-10-12T20:02:59.280Z,132.97
2022-10-12T20:05:27.266Z,133.83
2022-10-12T20:07:55.203Z,133.50
2022-10-12T20:10:23.130Z,133.50
2022-10-12T20:12:50.980Z,133.50
2022-10-12T20:15:18.953Z,134.20
2022-10-12T20:17:46.775Z,133.03
2022-10-12T20:20:15.965Z,133.40
2022-10-12T20:22:43.751Z,133.37
2022-10-12T20:25:11.511Z,133.90
2022-10-12T20:27:39.340Z,133.97
2022-10-12T20:30:08.227Z,133.93
2022-10-12T20:32:36.078Z,133.50
2022-10-12T20:35:04.863Z,133.40
2022-10-12T20:37:35.199Z,133.20
2022-10-12T20:40:03.044Z,133.00
2022-10-12T20:42:30.833Z,133.17
2022-10-12T20:44:58.624Z,133.37
2022-10-12T20:47:27.112Z,133.23
2022-10-12T20:49:54.934Z,133.10
2022-10-12T20:52:22.709Z,133.07
2022-10-12T20:54:52.939Z,133.70
2022-10-12T20:57:20.723Z,133.10
2022-10-12T20:59:48.969Z,133.20
2022-10-12T21:02:17.418Z,132.73
2022-10-12T21:04:45.380Z,133.30
2022-10-12T21:07:15.699Z,133.07
2022-10-12T21:09:43.652Z,132.73
2022-10-12T21:12:12.927Z,133.20
2022-10-12T21:14:40.684Z,132.90
2022-10-12T21:17:08.496Z,132.97
2022-10-12T21:19:36.289Z,133.17
2022-10-12T21:22:04.108Z,133.03
2022-10-12T21:24:32.038Z,132.47
2022-10-12T21:26:59.836Z,132.70
2022-10-12T21:29:29.194Z,132.70
2022-10-12T21:31:57.173Z,132.80
2022-10-12T21:34:25.122Z,132.97
2022-10-12T21:36:52.954Z,132.17
2022-10-12T21:39:20.731Z,132.80
2022-10-12T21:41:48.502Z,133.07
2022-10-12T21:44:16.268Z,132.57
2022-10-12T21:46:45.487Z,132.83
2022-10-12T21:49:13.379Z,132.70
2022-10-12T21:51:41.258Z,132.40
2022-10-12T21:54:09.061Z,131.73
2022-10-12T21:56:37.670Z,132.63
2022-10-12T21:59:06.415Z,132.17
2022-10-12T22:01:35.726Z,132.37
2022-10-12T22:04:07.352Z,133.00
2022-10-12T22:06:35.551Z,132.07
2022-10-12T22:09:06.996Z,132.77
2022-10-12T22:11:36.198Z,132.40
2022-10-12T22:14:06.191Z,132.40
2022-10-12T22:16:34.055Z,132.33
2022-10-12T22:19:05.475Z,131.80
2022-10-12T22:21:34.547Z,132.67
2022-10-12T22:24:02.531Z,132.20
2022-10-12T22:26:30.462Z,132.77
2022-10-12T22:28:58.979Z,132.07
2022-10-12T22:31:27.268Z,132.33
2022-10-12T22:33:56.201Z,132.33
2022-10-12T22:36:25.357Z,131.90
2022-10-12T22:38:53.240Z,131.97
2022-10-12T22:41:23.027Z,132.20
2022-10-12T22:43:52.035Z,132.23
2022-10-12T22:46:20.346Z,132.40
2022-10-12T22:48:48.759Z,132.30
2022-10-12T22:51:19.384Z,132.10
2022-10-12T22:53:48.512Z,131.97
2022-10-12T22:56:18.644Z,131.80
2022-10-12T22:58:48.745Z,132.00
2022-10-12T23:01:18.260Z,132.10
2022-10-12T23:03:46.119Z,131.77
2022-10-12T23:06:16.094Z,132.57
2022-10-12T23:08:44.737Z,131.97
2022-10-12T23:11:16.948Z,132.10
2022-10-12T23:13:45.095Z,131.97
2022-10-12T23:16:18.977Z,132.23
2022-10-12T23:18:46.859Z,131.53
2022-10-12T23:21:16.672Z,132.37
2022-10-12T23:23:45.848Z,132.20
2022-10-12T23:26:16.279Z,132.17
2022-10-12T23:28:44.819Z,132.00
2022-10-12T23:31:18.357Z,132.23
2022-10-12T23:33:46.384Z,131.97
2022-10-12T23:36:16.235Z,131.93
2022-10-12T23:38:45.458Z,132.03
2022-10-12T23:41:15.476Z,132.27
2022-10-12T23:43:43.358Z,132.03
2022-10-12T23:46:12.183Z,132.03
2022-10-12T23:48:40.323Z,132.07
2022-10-12T23:51:09.783Z,132.57
2022-10-12T23:53:38.578Z,132.00
2022-10-12T23:56:07.294Z,132.07
2022-10-12T23:58:36.560Z,131.77
